createdAt,value
2022-12-18T00:04:39.818Z,5.72
2022-12-18T00:09:41.625Z,8.00
2022-12-18T00:14:43.524Z,9.23
2022-12-18T00:19:45.391Z,8.75
2022-12-18T00:24:47.217Z,8.70
2022-12-18T00:29:50.174Z,9.70
2022-12-18T00:34:52.037Z,8.55
2022-12-18T00:39:53.847Z,9.80
2022-12-18T00:44:55.902Z,8.75
2022-12-18T00:49:57.708Z,8.43
2022-12-18T00:55:04.482Z,7.03
2022-12-18T01:00:11.112Z,7.53
2022-12-18T01:05:14.481Z,5.93
2022-12-18T01:10:16.337Z,8.80
2022-12-18T01:15:19.238Z,7.28
2022-12-18T01:20:21.165Z,7.38
2022-12-18T01:25:22.994Z,8.15
2022-12-18T01:30:26.296Z,8.07
2022-12-18T01:35:28.653Z,8.80
2022-12-18T01:40:30.454Z,7.90
2022-12-18T01:45:33.167Z,8.85
2022-12-18T01:50:39.697Z,8.15
2022-12-18T01:55:50.164Z,8.03
2022-12-18T02:00:52.056Z,8.93
2022-12-18T02:06:18.424Z,7.32
2022-12-18T02:11:24.496Z,7.53
2022-12-18T02:16:52.730Z,6.57
2022-12-18T02:22:35.541Z,7.15
2022-12-18T02:27:40.898Z,7.50
2022-12-18T02:32:49.781Z,6.63
2022-12-18T02:37:56.664Z,6.28
2022-12-18T02:43:25.098Z,6.03
2022-12-18T02:48:32.112Z,6.80
2022-12-18T02:53:54.479Z,8.38
2022-12-18T02:59:07.520Z,7.25
2022-12-18T03:04:48.704Z,7.40
2022-12-18T03:09:55.184Z,6.93
2022-12-18T03:15:17.470Z,7.00
2022-12-18T03:20:25.198Z,6.72
2022-12-18T03:25:29.258Z,7.40
2022-12-18T03:30:33.793Z,6.45
2022-12-18T03:35:41.279Z,7.68
2022-12-18T03:41:07.654Z,6.63
2022-12-18T03:46:42.394Z,6.45
2022-12-18T03:52:03.152Z,7.20
2022-12-18T03:57:15.032Z,6.18
2022-12-18T04:02:19.223Z,6.00
2022-12-18T04:07:22.937Z,6.03
2022-12-18T04:12:27.322Z,6.30
2022-12-18T04:17:29.309Z,7.35
2022-12-18T04:22:32.857Z,6.03
2022-12-18T04:27:35.542Z,5.63
2022-12-18T04:32:39.782Z,5.10
2022-12-18T04:37:42.429Z,4.05
2022-12-18T04:42:44.419Z,4.20
2022-12-18T04:47:46.277Z,4.68
2022-12-18T04:52:48.126Z,4.65
2022-12-18T04:57:49.996Z,3.28
2022-12-18T05:02:51.947Z,3.75
2022-12-18T05:07:53.852Z,3.50
2022-12-18T05:12:59.109Z,4.75
2022-12-18T05:18:03.709Z,4.57
2022-12-18T05:23:05.484Z,4.47
2022-12-18T05:28:07.266Z,5.15
2022-12-18T05:33:09.216Z,5.47
2022-12-18T05:38:11.244Z,5.00
2022-12-18T05:43:17.913Z,4.72
2022-12-18T05:48:23.350Z,5.13
2022-12-18T05:53:25.202Z,5.90
2022-12-18T05:58:26.995Z,5.68
2022-12-18T06:03:33.691Z,5.43
2022-12-18T06:08:35.956Z,4.95
2022-12-18T06:13:39.868Z,5.70
2022-12-18T06:18:41.804Z,4.30
2022-12-18T06:23:43.828Z,5.13
2022-12-18T06:28:45.635Z,4.28
2022-12-18T06:33:47.670Z,5.25
2022-12-18T06:38:50.008Z,4.38
2022-12-18T06:43:55.583Z,3.95
2022-12-18T06:49:00.304Z,4.13
2022-12-18T06:54:02.484Z,4.03
2022-12-18T06:59:04.414Z,4.55
2022-12-18T07:04:06.184Z,4.65
2022-12-18T07:09:07.945Z,5.18
2022-12-18T07:14:09.993Z,4.93
2022-12-18T07:19:11.774Z,5.68
2022-12-18T07:24:14.024Z,5.10
2022-12-18T07:29:15.837Z,6.80
2022-12-18T07:34:17.925Z,5.65
2022-12-18T07:39:19.861Z,5.82
2022-12-18T07:44:21.629Z,5.95
2022-12-18T07:49:23.338Z,7.10
2022-12-18T07:54:25.926Z,6.68
2022-12-18T07:59:28.798Z,6.68
2022-12-18T08:04:30.597Z,5.90
2022-12-18T08:09:32.435Z,6.55
2022-12-18T08:14:34.204Z,7.20
2022-12-18T08:19:36.150Z,7.10
2022-12-18T08:24:37.984Z,7.95
2022-12-18T08:29:39.788Z,8.48
2022-12-18T08:34:41.548Z,10.00
2022-12-18T08:39:43.254Z,9.10
2022-12-18T08:44:45.032Z,8.05
2022-12-18T08:49:46.839Z,8.18
2022-12-18T08:54:48.638Z,8.15
2022-12-18T08:59:50.645Z,7.85
2022-12-18T09:04:57.097Z,7.85
2022-12-18T09:09:59.454Z,7.72
2022-12-18T09:15:01.181Z,7.80
2022-12-18T09:20:03.135Z,8.95
2022-12-18T09:25:08.934Z,8.65
2022-12-18T09:30:11.388Z,7.80
2022-12-18T09:35:13.224Z,8.85
2022-12-18T09:40:21.997Z,9.50
2022-12-18T09:45:24.666Z,7.30
2022-12-18T09:50:40.412Z,8.88
2022-12-18T09:55:45.934Z,8.70
2022-12-18T10:00:48.406Z,9.50
2022-12-18T10:05:56.165Z,8.45
2022-12-18T10:11:11.609Z,9.57
2022-12-18T10:16:25.451Z,9.52
2022-12-18T10:21:54.857Z,10.93
2022-12-18T10:27:13.994Z,8.55
2022-12-18T10:32:22.107Z,9.90
2022-12-18T10:37:26.877Z,10.73
2022-12-18T10:42:28.607Z,10.00
2022-12-18T10:47:30.610Z,10.50
2022-12-18T10:52:32.434Z,13.07
2022-12-18T10:57:39.707Z,10.30
2022-12-18T11:02:41.740Z,9.73
2022-12-18T11:07:51.759Z,10.23
2022-12-18T11:12:53.658Z,9.45
2022-12-18T11:17:55.937Z,10.75
2022-12-18T11:23:01.154Z,10.57
2022-12-18T11:28:07.423Z,10.18
2022-12-18T11:33:27.253Z,12.48
2022-12-18T11:38:35.791Z,16.50
2022-12-18T11:43:51.656Z,13.57
2022-12-18T11:48:55.430Z,13.23
2022-12-18T11:53:57.195Z,13.50
2022-12-18T11:59:29.489Z,12.23
2022-12-18T12:04:44.793Z,13.18
2022-12-18T12:09:55.326Z,11.73
2022-12-18T12:15:11.593Z,12.45
2022-12-18T12:20:46.054Z,12.32
2022-12-18T12:25:53.839Z,12.13
2022-12-18T12:31:26.275Z,11.90
2022-12-18T12:36:41.963Z,12.35
2022-12-18T12:42:05.095Z,11.85
2022-12-18T12:47:33.536Z,10.77
2022-12-18T12:52:43.756Z,12.73
2022-12-18T12:58:09.245Z,11.20
2022-12-18T13:03:28.918Z,12.07
2022-12-18T13:08:33.977Z,10.93
2022-12-18T13:13:50.902Z,10.43
2022-12-18T13:19:00.896Z,12.10
2022-12-18T13:24:24.337Z,11.57
2022-12-18T13:29:46.283Z,11.10
2022-12-18T13:34:48.627Z,9.35
2022-12-18T13:39:50.522Z,9.25
2022-12-18T13:44:52.757Z,10.98
2022-12-18T13:49:55.978Z,11.00
2022-12-18T13:55:00.604Z,9.85
2022-12-18T14:00:29.203Z,10.25
2022-12-18T14:05:33.352Z,12.23
2022-12-18T14:10:47.886Z,9.57
2022-12-18T14:15:51.954Z,10.50
2022-12-18T14:20:57.968Z,8.88
2022-12-18T14:26:05.784Z,11.75
2022-12-18T14:31:20.562Z,10.65
2022-12-18T14:36:29.595Z,10.43
2022-12-18T14:41:32.358Z,10.93
2022-12-18T14:46:37.786Z,9.68
2022-12-18T14:51:39.716Z,10.48
2022-12-18T14:56:48.554Z,12.93
2022-12-18T15:02:18.340Z,10.15
2022-12-18T15:07:22.815Z,10.85
2022-12-18T15:12:40.904Z,8.48
2022-12-18T15:22:44.298Z,8.80
2022-12-18T15:27:48.468Z,9.75
2022-12-18T15:32:51.348Z,8.02
2022-12-18T15:37:53.546Z,9.15
2022-12-18T15:43:15.386Z,12.68
2022-12-18T15:48:25.933Z,10.60
2022-12-18T15:53:33.495Z,12.40
2022-12-18T16:03:38.029Z,11.40
2022-12-18T16:08:40.316Z,10.20
2022-12-18T16:13:43.755Z,11.45
2022-12-18T16:18:45.724Z,11.18
2022-12-18T16:23:47.765Z,11.60
2022-12-18T16:28:49.524Z,10.88
2022-12-18T16:34:13.805Z,10.73
2022-12-18T16:39:15.740Z,10.48
2022-12-18T16:44:17.800Z,10.65
2022-12-18T16:49:20.234Z,10.85
2022-12-18T16:54:22.214Z,7.43
2022-12-18T16:59:24.015Z,8.55
2022-12-18T17:04:25.795Z,10.07
2022-12-18T17:09:27.728Z,9.38
2022-12-18T17:14:29.933Z,9.40
2022-12-18T17:19:31.750Z,8.50
2022-12-18T17:24:35.359Z,9.40
2022-12-18T17:29:41.161Z,7.97
2022-12-18T17:34:47.960Z,7.38
2022-12-18T17:39:49.749Z,7.63
2022-12-18T17:44:51.573Z,7.63
2022-12-18T17:49:53.652Z,7.75
2022-12-18T17:54:57.582Z,8.50
2022-12-18T17:59:59.339Z,9.98
2022-12-18T18:05:01.145Z,10.07
2022-12-18T18:10:03.087Z,8.35
2022-12-18T18:15:05.223Z,8.40
2022-12-18T18:20:07.949Z,8.20
2022-12-18T18:25:10.519Z,8.68
2022-12-18T18:30:13.328Z,8.55
2022-12-18T18:35:44.731Z,8.85
2022-12-18T18:40:37.216Z,7.93
2022-12-18T18:45:39.053Z,10.07
2022-12-18T18:50:44.077Z,10.38
2022-12-18T18:55:51.696Z,9.07
2022-12-18T19:01:16.668Z,8.50
2022-12-18T19:06:24.053Z,9.77
2022-12-18T19:11:45.543Z,8.63
2022-12-18T19:16:47.424Z,9.25
2022-12-18T19:21:50.134Z,10.98
2022-12-18T19:26:52.302Z,8.45
2022-12-18T19:31:57.307Z,7.80
2022-12-18T19:37:00.062Z,8.93
2022-12-18T19:42:02.261Z,8.77
2022-12-18T19:47:04.064Z,8.45
2022-12-18T19:52:05.847Z,7.60
2022-12-18T19:57:11.503Z,7.72
2022-12-18T20:02:14.019Z,8.05
2022-12-18T20:07:16.106Z,7.75
2022-12-18T20:12:18.074Z,6.47
2022-12-18T20:17:20.107Z,6.13
2022-12-18T20:22:22.756Z,7.07
2022-12-18T20:27:25.055Z,7.90
2022-12-18T20:32:26.963Z,7.43
2022-12-18T20:37:31.402Z,7.72
2022-12-18T20:42:33.504Z,6.45
2022-12-18T20:47:35.218Z,6.60
2022-12-18T20:52:36.944Z,5.82
2022-12-18T20:57:39.199Z,8.32
2022-12-18T21:02:41.118Z,7.90
2022-12-18T21:07:43.295Z,6.00
2022-12-18T21:13:00.180Z,6.63
2022-12-18T21:18:05.350Z,5.28
2022-12-18T21:23:16.023Z,5.97
2022-12-18T21:28:18.816Z,6.05
2022-12-18T21:33:20.815Z,7.32
2022-12-18T21:38:22.651Z,6.72
2022-12-18T21:43:43.047Z,7.03
2022-12-18T21:48:44.814Z,7.95
2022-12-18T21:53:47.627Z,7.82
2022-12-18T21:58:56.684Z,8.38
2022-12-18T22:03:59.248Z,6.95
2022-12-18T22:09:01.148Z,9.20
2022-12-18T22:14:02.938Z,8.73
2022-12-18T22:19:04.734Z,9.38
2022-12-18T22:24:10.783Z,9.55
2022-12-18T22:29:37.846Z,9.85
2022-12-18T22:34:39.723Z,8.18
2022-12-18T22:39:41.535Z,8.07
2022-12-18T22:44:43.753Z,8.88
2022-12-18T22:49:45.676Z,8.10
2022-12-18T22:54:47.515Z,9.25
2022-12-18T22:59:50.380Z,8.00
2022-12-18T23:04:52.439Z,8.45
2022-12-18T23:10:00.798Z,10.02
2022-12-18T23:15:04.908Z,9.80
2022-12-18T23:20:07.224Z,10.65
2022-12-18T23:25:09.555Z,10.57
2022-12-18T23:30:11.944Z,9.20
2022-12-18T23:35:15.548Z,8.82
2022-12-18T23:40:18.224Z,7.90
2022-12-18T23:45:20.331Z,11.18
2022-12-18T23:50:29.116Z,9.13
2022-12-18T23:55:32.099Z,11.63
